createdAt,value
2018-12-30T00:00:52.993Z,0.00
2018-12-30T00:01:52.952Z,0.00
2018-12-30T00:02:53.003Z,0.00
2018-12-30T00:03:52.940Z,0.00
2018-12-30T00:05:52.900Z,0.00
2018-12-30T00:06:52.930Z,0.00
2018-12-30T00:07:52.881Z,0.00
2018-12-30T00:08:54.923Z,0.00
2018-12-30T00:09:52.885Z,0.00
2018-12-30T00:10:52.962Z,0.00
2018-12-30T00:11:52.836Z,0.00
2018-12-30T00:12:52.878Z,0.00
2018-12-30T00:13:52.839Z,0.00
2018-12-30T00:14:52.884Z,0.00
2018-12-30T00:15:52.805Z,0.00
2018-12-30T00:16:52.793Z,0.00
2018-12-30T00:17:52.774Z,0.00
2018-12-30T00:18:52.839Z,0.00
2018-12-30T00:19:52.752Z,0.00
2018-12-30T00:20:52.822Z,0.00
2018-12-30T00:21:52.759Z,0.00
2018-12-30T00:22:52.737Z,0.00
2018-12-30T00:23:52.732Z,0.00
2018-12-30T00:24:52.747Z,0.00
2018-12-30T00:25:52.693Z,0.00
2018-12-30T00:26:52.767Z,0.00
2018-12-30T00:27:52.662Z,0.00
2018-12-30T00:28:52.708Z,0.00
2018-12-30T00:29:52.640Z,0.00
2018-12-30T00:30:52.686Z,0.00
2018-12-30T00:31:52.626Z,0.00
2018-12-30T00:32:52.706Z,0.00
2018-12-30T00:33:52.628Z,0.00
2018-12-30T00:34:52.639Z,0.00
2018-12-30T00:35:52.592Z,0.00
2018-12-30T00:36:52.652Z,0.00
2018-12-30T00:37:52.564Z,0.00
2018-12-30T00:38:52.685Z,0.00
2018-12-30T00:39:52.545Z,0.00
2018-12-30T00:40:52.563Z,0.00
2018-12-30T00:41:52.516Z,0.00
2018-12-30T00:42:52.599Z,0.00
2018-12-30T00:43:52.514Z,0.00
2018-12-30T00:44:52.582Z,0.00
2018-12-30T00:45:52.468Z,0.00
2018-12-30T00:46:52.527Z,0.00
2018-12-30T00:47:52.453Z,0.00
2018-12-30T00:48:58.024Z,0.00
2018-12-30T00:49:52.449Z,0.00
2018-12-30T00:50:53.436Z,0.00
2018-12-30T00:51:52.403Z,0.00
2018-12-30T00:52:52.432Z,0.00
2018-12-30T00:53:52.397Z,0.00
2018-12-30T00:54:54.433Z,0.00
2018-12-30T00:55:52.355Z,0.00
2018-12-30T00:56:53.373Z,0.00
2018-12-30T00:57:52.342Z,0.00
2018-12-30T00:58:52.391Z,0.00
2018-12-30T00:59:52.316Z,0.00
2018-12-30T01:00:52.379Z,0.00
2018-12-30T01:01:52.292Z,0.00
2018-12-30T01:02:52.393Z,0.00
2018-12-30T01:03:52.291Z,0.00
2018-12-30T01:04:52.309Z,0.00
2018-12-30T01:05:52.246Z,0.00
2018-12-30T01:06:52.317Z,0.00
2018-12-30T01:07:52.226Z,0.00
2018-12-30T01:08:52.259Z,0.00
2018-12-30T01:09:52.217Z,0.00
2018-12-30T01:10:52.243Z,0.00
2018-12-30T01:11:52.184Z,0.00
2018-12-30T01:12:52.258Z,0.00
2018-12-30T01:13:52.186Z,0.00
2018-12-30T01:14:52.196Z,0.00
2018-12-30T01:15:52.173Z,0.00
2018-12-30T01:16:52.179Z,0.00
2018-12-30T01:17:52.129Z,0.00
2018-12-30T01:18:52.199Z,0.00
2018-12-30T01:19:52.121Z,0.00
2018-12-30T01:20:52.107Z,0.00
2018-12-30T01:21:52.082Z,0.00
2018-12-30T01:22:52.125Z,0.00
2018-12-30T01:23:52.069Z,0.00
2018-12-30T01:24:52.250Z,0.00
2018-12-30T01:25:52.032Z,0.00
2018-12-30T01:26:52.042Z,0.00
2018-12-30T01:27:52.014Z,0.00
2018-12-30T01:28:52.060Z,0.00
2018-12-30T01:29:52.003Z,0.00
2018-12-30T01:30:52.070Z,0.00
2018-12-30T01:31:51.969Z,0.00
2018-12-30T01:32:52.005Z,0.00
2018-12-30T01:33:51.967Z,0.00
2018-12-30T01:34:57.460Z,0.00
2018-12-30T01:35:51.928Z,0.00
2018-12-30T01:36:52.933Z,0.00
2018-12-30T01:37:51.924Z,0.00
2018-12-30T01:38:51.919Z,0.00
2018-12-30T01:39:51.896Z,0.00
2018-12-30T01:40:51.944Z,0.00
2018-12-30T01:41:51.866Z,0.00
2018-12-30T01:42:52.877Z,0.00
2018-12-30T01:43:51.843Z,0.00
2018-12-30T01:44:51.900Z,0.00
2018-12-30T01:45:51.817Z,0.00
2018-12-30T01:46:51.879Z,0.00
2018-12-30T01:47:51.796Z,0.00
2018-12-30T01:48:51.892Z,0.00
2018-12-30T01:49:51.796Z,0.00
2018-12-30T01:50:51.803Z,0.00
2018-12-30T01:51:51.769Z,0.00
2018-12-30T01:52:51.811Z,0.00
2018-12-30T01:53:51.739Z,0.00
2018-12-30T01:54:51.761Z,0.00
2018-12-30T01:55:51.707Z,0.00
2018-12-30T01:56:51.744Z,0.00
2018-12-30T01:57:51.686Z,0.00
2018-12-30T01:58:51.757Z,0.00
2018-12-30T01:59:51.697Z,0.00
2018-12-30T02:00:51.667Z,0.00
2018-12-30T02:01:51.656Z,0.00
2018-12-30T02:02:51.686Z,0.00
2018-12-30T02:03:51.617Z,0.00
2018-12-30T02:04:52.643Z,0.00
2018-12-30T02:05:51.601Z,0.00
2018-12-30T02:06:51.617Z,0.00
2018-12-30T02:07:51.573Z,0.00
2018-12-30T02:08:51.617Z,0.00
2018-12-30T02:09:51.572Z,0.00
2018-12-30T02:10:51.631Z,0.00
2018-12-30T02:11:51.533Z,0.00
2018-12-30T02:12:52.043Z,0.00
2018-12-30T02:13:51.510Z,0.00
2018-12-30T02:14:51.678Z,0.00
2018-12-30T02:15:51.487Z,0.00
2018-12-30T02:16:53.557Z,0.00
2018-12-30T02:17:51.484Z,0.00
2018-12-30T02:18:51.481Z,0.00
2018-12-30T02:19:51.469Z,0.00
2018-12-30T02:20:52.534Z,0.00
2018-12-30T02:21:51.422Z,0.00
2018-12-30T02:22:51.545Z,0.00
2018-12-30T02:23:51.400Z,0.00
2018-12-30T02:24:51.446Z,0.00
2018-12-30T02:25:51.386Z,0.00
2018-12-30T02:26:51.429Z,0.00
2018-12-30T02:27:51.369Z,0.00
2018-12-30T02:28:52.364Z,0.00
2018-12-30T02:29:51.363Z,0.00
2018-12-30T02:30:51.381Z,0.00
2018-12-30T02:31:51.321Z,0.00
2018-12-30T02:32:51.367Z,0.00
2018-12-30T02:33:51.291Z,0.00
2018-12-30T02:34:51.381Z,0.00
2018-12-30T02:35:51.285Z,0.00
2018-12-30T02:36:51.293Z,0.00
2018-12-30T02:37:51.253Z,0.00
2018-12-30T02:38:51.318Z,0.00
2018-12-30T02:39:51.225Z,0.00
2018-12-30T02:40:51.251Z,0.00
2018-12-30T02:41:51.203Z,0.00
2018-12-30T02:42:51.233Z,0.00
2018-12-30T02:43:51.193Z,0.00
2018-12-30T02:44:51.250Z,0.00
2018-12-30T02:45:51.178Z,0.00
2018-12-30T02:46:51.262Z,0.00
2018-12-30T02:47:51.138Z,0.00
2018-12-30T02:48:51.170Z,0.00
2018-12-30T02:49:51.126Z,0.00
2018-12-30T02:50:51.216Z,0.00
2018-12-30T02:51:51.104Z,0.00
2018-12-30T02:52:51.100Z,0.00
2018-12-30T02:53:51.075Z,0.00
2018-12-30T02:54:51.111Z,0.00
2018-12-30T02:55:51.069Z,0.00
2018-12-30T02:56:51.150Z,0.00
2018-12-30T02:57:51.031Z,0.00
2018-12-30T02:58:51.058Z,0.00
2018-12-30T02:59:51.010Z,0.00
2018-12-30T03:00:51.098Z,0.00
2018-12-30T03:01:50.989Z,0.00
2018-12-30T03:02:51.077Z,0.00
2018-12-30T03:03:50.976Z,0.00
2018-12-30T03:04:50.988Z,0.00
2018-12-30T03:05:50.968Z,0.00
2018-12-30T03:07:21.013Z,0.00
2018-12-30T03:07:50.929Z,0.00
2018-12-30T03:08:50.915Z,0.00
2018-12-30T03:09:51.962Z,0.00
2018-12-30T03:10:50.908Z,0.00
2018-12-30T03:11:50.930Z,0.00
2018-12-30T03:12:50.870Z,0.00
2018-12-30T03:13:50.953Z,0.00
2018-12-30T03:14:50.869Z,0.00
2018-12-30T03:15:50.981Z,0.00
2018-12-30T03:16:50.827Z,0.00
2018-12-30T03:17:50.880Z,0.00
2018-12-30T03:18:50.845Z,0.00
2018-12-30T03:19:50.878Z,0.00
2018-12-30T03:20:50.807Z,0.00
2018-12-30T03:21:59.019Z,0.00
2018-12-30T03:22:51.760Z,0.00
2018-12-30T03:23:50.825Z,0.00
2018-12-30T03:24:50.760Z,0.00
2018-12-30T03:25:51.778Z,0.00
2018-12-30T03:26:50.746Z,0.00
2018-12-30T03:27:50.748Z,0.00
2018-12-30T03:28:50.803Z,0.00
2018-12-30T03:29:50.805Z,0.00
2018-12-30T03:30:50.711Z,0.00
2018-12-30T03:31:50.779Z,0.00
2018-12-30T03:32:50.674Z,0.00
2018-12-30T03:33:50.707Z,0.00
2018-12-30T03:34:50.634Z,0.00
2018-12-30T03:35:50.753Z,0.00
2018-12-30T03:36:50.622Z,0.00
2018-12-30T03:37:50.748Z,0.00
2018-12-30T03:38:50.605Z,0.00
2018-12-30T03:39:50.615Z,0.00
2018-12-30T03:40:50.616Z,0.00
2018-12-30T03:41:50.629Z,0.00
2018-12-30T03:42:50.551Z,0.00
2018-12-30T03:43:50.639Z,0.00
2018-12-30T03:44:50.524Z,0.00
2018-12-30T03:45:50.615Z,0.00
2018-12-30T03:46:50.528Z,0.00
2018-12-30T03:47:50.565Z,0.00
2018-12-30T03:48:50.481Z,0.00
2018-12-30T03:49:50.580Z,0.00
2018-12-30T03:50:50.504Z,0.00
2018-12-30T03:52:08.478Z,0.00
2018-12-30T03:52:50.440Z,0.00
2018-12-30T03:54:07.497Z,0.00
2018-12-30T03:54:50.475Z,0.00
2018-12-30T03:55:50.435Z,0.00
2018-12-30T03:56:50.393Z,0.00
2018-12-30T03:57:50.434Z,0.00
2018-12-30T03:58:50.395Z,0.00
2018-12-30T03:59:50.470Z,0.00
2018-12-30T04:00:50.429Z,0.00
2018-12-30T04:01:50.463Z,0.00
2018-12-30T04:02:50.334Z,0.00
2018-12-30T04:03:50.369Z,0.00
2018-12-30T04:04:50.378Z,0.00
2018-12-30T04:05:50.389Z,0.00
2018-12-30T04:06:50.339Z,0.00
2018-12-30T04:07:50.395Z,0.00
2018-12-30T04:08:50.288Z,0.00
2018-12-30T04:09:50.320Z,0.00
2018-12-30T04:10:50.323Z,0.00
2018-12-30T04:11:50.377Z,0.00
2018-12-30T04:12:50.223Z,0.00
2018-12-30T04:13:50.229Z,0.00
2018-12-30T04:14:50.205Z,0.00
2018-12-30T04:15:50.268Z,0.00
2018-12-30T04:16:50.208Z,0.00
2018-12-30T04:17:50.273Z,0.00
2018-12-30T04:18:50.165Z,0.00
2018-12-30T04:19:50.178Z,0.00
2018-12-30T04:20:50.153Z,0.00
2018-12-30T04:21:51.350Z,0.00
2018-12-30T04:22:50.115Z,0.00
2018-12-30T04:23:50.206Z,0.00
2018-12-30T04:24:50.110Z,0.00
2018-12-30T04:25:50.103Z,0.00
2018-12-30T04:26:50.135Z,0.00
2018-12-30T04:27:50.118Z,0.00
2018-12-30T04:28:50.052Z,0.00
2018-12-30T04:29:50.147Z,0.00
2018-12-30T04:30:50.053Z,0.00
2018-12-30T04:31:50.079Z,0.00
2018-12-30T04:32:50.044Z,0.00
2018-12-30T04:33:50.067Z,0.00
2018-12-30T04:34:49.982Z,0.00
2018-12-30T04:35:50.090Z,0.00
2018-12-30T04:36:50.134Z,0.00
2018-12-30T04:37:56.970Z,0.00
2018-12-30T04:38:50.099Z,0.00
2018-12-30T04:39:58.083Z,0.00
2018-12-30T04:40:49.961Z,0.00
2018-12-30T04:41:51.023Z,0.00
2018-12-30T04:42:49.904Z,0.00
2018-12-30T04:43:49.934Z,0.00
2018-12-30T04:44:49.871Z,0.00
2018-12-30T04:45:49.978Z,0.00
2018-12-30T04:46:49.901Z,0.00
2018-12-30T04:47:49.960Z,0.00
2018-12-30T04:48:49.850Z,0.00
2018-12-30T04:49:49.859Z,0.00
2018-12-30T04:50:49.808Z,0.00
2018-12-30T04:51:49.905Z,0.00
2018-12-30T04:52:49.830Z,0.00
2018-12-30T04:53:50.820Z,0.00
2018-12-30T04:54:49.778Z,0.00
2018-12-30T04:55:49.812Z,0.00
2018-12-30T04:56:49.804Z,0.00
2018-12-30T04:57:49.862Z,0.00
2018-12-30T04:58:49.736Z,0.00
2018-12-30T04:59:49.832Z,0.00
2018-12-30T05:00:49.734Z,0.00
2018-12-30T05:01:49.769Z,0.00
2018-12-30T05:02:49.685Z,0.00
2018-12-30T05:03:49.747Z,0.00
2018-12-30T05:04:49.701Z,0.00
2018-12-30T05:05:49.684Z,0.00
2018-12-30T05:06:49.682Z,0.00
2018-12-30T05:07:49.675Z,0.00
2018-12-30T05:08:49.676Z,0.00
2018-12-30T05:09:50.725Z,0.00
2018-12-30T05:10:49.605Z,0.00
2018-12-30T05:11:49.662Z,0.00
2018-12-30T05:12:49.637Z,0.00
2018-12-30T05:13:51.765Z,0.00
2018-12-30T05:14:49.594Z,0.00
2018-12-30T05:15:49.623Z,0.00
2018-12-30T05:16:49.556Z,0.00
2018-12-30T05:17:49.535Z,0.00
2018-12-30T05:18:49.551Z,0.00
2018-12-30T05:19:49.556Z,0.00
2018-12-30T05:20:49.490Z,0.00
2018-12-30T05:21:49.635Z,0.00
2018-12-30T05:22:49.472Z,0.00
2018-12-30T05:23:56.440Z,0.00
2018-12-30T05:24:49.441Z,0.00
2018-12-30T05:26:04.442Z,0.00
2018-12-30T05:26:49.436Z,0.00
2018-12-30T05:27:50.470Z,0.00
2018-12-30T05:28:49.400Z,0.00
2018-12-30T05:29:49.419Z,0.00
2018-12-30T05:30:49.387Z,0.00
2018-12-30T05:31:49.422Z,0.00
2018-12-30T05:32:49.374Z,0.00
2018-12-30T05:33:50.366Z,0.00
2018-12-30T05:34:49.337Z,0.00
2018-12-30T05:35:51.220Z,0.00
2018-12-30T05:36:49.303Z,0.00
2018-12-30T05:37:49.414Z,0.00
2018-12-30T05:38:49.293Z,0.00
2018-12-30T05:39:49.384Z,0.00
2018-12-30T05:40:49.267Z,0.00
2018-12-30T05:41:49.298Z,0.00
2018-12-30T05:42:49.258Z,0.00
2018-12-30T05:43:49.310Z,0.00
2018-12-30T05:44:49.235Z,0.00
2018-12-30T05:45:49.320Z,0.00
2018-12-30T05:46:49.210Z,0.00
2018-12-30T05:47:49.252Z,0.00
2018-12-30T05:48:49.191Z,0.00
2018-12-30T05:49:49.241Z,0.00
2018-12-30T05:50:49.153Z,0.00
2018-12-30T05:51:49.257Z,0.00
2018-12-30T05:52:49.153Z,0.00
2018-12-30T05:53:49.170Z,0.00
2018-12-30T05:54:49.120Z,0.00
2018-12-30T05:55:50.223Z,0.00
2018-12-30T05:56:49.122Z,0.00
2018-12-30T05:57:49.116Z,0.00
2018-12-30T05:58:49.075Z,0.00
2018-12-30T05:59:49.105Z,0.00
2018-12-30T06:00:49.054Z,0.00
2018-12-30T06:01:49.162Z,0.00
2018-12-30T06:02:49.051Z,0.00
2018-12-30T06:03:49.029Z,0.00
2018-12-30T06:04:49.004Z,0.00
2018-12-30T06:05:49.044Z,0.00
2018-12-30T06:06:48.979Z,0.00
2018-12-30T06:07:49.099Z,0.00
2018-12-30T06:08:48.966Z,0.00
2018-12-30T06:09:55.928Z,0.00
2018-12-30T06:10:48.937Z,0.00
2018-12-30T06:12:03.937Z,0.00
2018-12-30T06:12:48.938Z,0.00
2018-12-30T06:13:49.929Z,0.00
2018-12-30T06:14:48.895Z,0.00
2018-12-30T06:15:48.911Z,0.00
2018-12-30T06:16:48.874Z,0.00
2018-12-30T06:17:48.966Z,0.00
2018-12-30T06:18:48.849Z,0.00
2018-12-30T06:19:49.873Z,0.00
2018-12-30T06:20:48.830Z,0.00
2018-12-30T06:21:48.852Z,0.00
2018-12-30T06:22:49.677Z,0.00
2018-12-30T06:23:48.871Z,0.00
2018-12-30T06:24:48.787Z,0.00
2018-12-30T06:25:48.884Z,0.00
2018-12-30T06:26:48.758Z,0.00
2018-12-30T06:27:48.818Z,0.00
2018-12-30T06:28:48.741Z,0.00
2018-12-30T06:29:48.794Z,0.00
2018-12-30T06:30:48.718Z,0.00
2018-12-30T06:31:48.815Z,0.00
2018-12-30T06:32:50.204Z,0.00
2018-12-30T06:33:48.737Z,0.00
2018-12-30T06:34:48.697Z,0.00
2018-12-30T06:35:48.745Z,0.00
2018-12-30T06:36:48.653Z,0.00
2018-12-30T06:37:48.787Z,0.00
2018-12-30T06:38:48.656Z,0.00
2018-12-30T06:39:48.693Z,0.00
2018-12-30T06:40:48.609Z,0.00
2018-12-30T06:41:48.681Z,0.00
2018-12-30T06:42:48.610Z,0.00
2018-12-30T06:43:48.631Z,0.00
2018-12-30T06:44:48.581Z,0.00
2018-12-30T06:45:50.663Z,0.00
2018-12-30T06:46:48.565Z,0.00
2018-12-30T06:47:48.625Z,0.00
2018-12-30T06:48:48.548Z,0.00
2018-12-30T06:49:48.544Z,0.00
2018-12-30T06:50:48.501Z,0.00
2018-12-30T06:51:48.558Z,0.00
2018-12-30T06:52:48.483Z,0.00
2018-12-30T06:53:48.615Z,0.00
2018-12-30T06:54:48.460Z,0.00
2018-12-30T06:55:56.475Z,0.00
2018-12-30T06:56:48.437Z,0.00
2018-12-30T06:57:49.514Z,0.00
2018-12-30T06:58:48.456Z,0.00
2018-12-30T06:59:50.453Z,0.00
2018-12-30T07:00:48.430Z,0.00
2018-12-30T07:01:48.428Z,0.00
2018-12-30T07:02:48.406Z,0.00
2018-12-30T07:03:48.455Z,0.00
2018-12-30T07:04:48.351Z,4.00
2018-12-30T07:05:48.438Z,4.00
2018-12-30T07:06:48.331Z,0.00
2018-12-30T07:07:48.380Z,4.00
2018-12-30T07:08:48.360Z,0.00
2018-12-30T07:09:48.363Z,4.00
2018-12-30T07:10:48.284Z,4.00
2018-12-30T07:11:48.417Z,4.00
2018-12-30T07:12:48.268Z,4.00
2018-12-30T07:13:48.330Z,8.00
2018-12-30T07:14:48.247Z,8.00
2018-12-30T07:15:48.301Z,8.00
2018-12-30T07:16:48.221Z,12.00
2018-12-30T07:17:48.309Z,12.00
2018-12-30T07:18:48.221Z,12.00
2018-12-30T07:19:48.227Z,16.00
2018-12-30T07:20:48.179Z,12.00
2018-12-30T07:21:48.244Z,12.00
2018-12-30T07:22:48.244Z,16.00
2018-12-30T07:23:48.180Z,20.00
2018-12-30T07:24:48.161Z,20.00
2018-12-30T07:25:48.168Z,20.00
2018-12-30T07:26:48.115Z,20.00
2018-12-30T07:27:48.173Z,20.00
2018-12-30T07:28:48.110Z,32.00
2018-12-30T07:29:48.240Z,36.00
2018-12-30T07:30:48.096Z,48.00
2018-12-30T07:31:48.099Z,56.00
2018-12-30T07:32:48.045Z,48.00
2018-12-30T07:33:48.156Z,52.00
2018-12-30T07:34:48.028Z,68.00
2018-12-30T07:35:48.026Z,76.00
2018-12-30T07:36:47.997Z,96.00
2018-12-30T07:37:48.038Z,112.00
2018-12-30T07:38:48.011Z,132.00
2018-12-30T07:39:48.075Z,140.00
2018-12-30T07:40:48.004Z,140.00
2018-12-30T07:41:47.990Z,144.00
2018-12-30T07:42:47.959Z,148.00
2018-12-30T07:43:48.009Z,152.00
2018-12-30T07:44:47.918Z,152.00
2018-12-30T07:45:49.021Z,152.00
2018-12-30T07:46:47.888Z,164.00
2018-12-30T07:47:47.918Z,168.00
2018-12-30T07:48:47.909Z,160.00
2018-12-30T07:49:48.953Z,180.00
2018-12-30T07:50:47.850Z,216.00
2018-12-30T07:51:48.001Z,252.00
2018-12-30T07:52:47.854Z,256.00
2018-12-30T07:53:47.876Z,260.00
2018-12-30T07:54:47.804Z,224.00
2018-12-30T07:55:47.894Z,244.00
2018-12-30T07:56:47.787Z,256.00
2018-12-30T07:57:47.880Z,272.00
2018-12-30T07:58:47.800Z,336.00
2018-12-30T07:59:47.817Z,384.00
2018-12-30T08:00:47.751Z,404.00
2018-12-30T08:01:47.790Z,380.00
2018-12-30T08:02:47.729Z,340.00
2018-12-30T08:03:47.734Z,324.00
2018-12-30T08:04:47.716Z,348.00
2018-12-30T08:05:47.731Z,392.00
2018-12-30T08:06:47.673Z,436.00
2018-12-30T08:07:47.755Z,492.00
2018-12-30T08:08:47.749Z,568.00
2018-12-30T08:09:47.749Z,664.00
2018-12-30T08:10:47.683Z,784.00
2018-12-30T08:11:47.659Z,848.00
2018-12-30T08:12:47.621Z,876.00
2018-12-30T08:13:47.697Z,988.00
2018-12-30T08:14:47.617Z,1032.00
2018-12-30T08:15:49.046Z,1004.00
2018-12-30T08:16:47.581Z,980.00
2018-12-30T08:17:48.645Z,968.00
2018-12-30T08:18:47.543Z,960.00
2018-12-30T08:19:48.585Z,992.00
2018-12-30T08:20:47.537Z,1032.00
2018-12-30T08:21:47.622Z,1052.00
2018-12-30T08:22:47.554Z,1148.00
2018-12-30T08:23:47.589Z,1232.00
2018-12-30T08:24:47.496Z,1276.00
2018-12-30T08:25:47.565Z,1384.00
2018-12-30T08:26:47.466Z,1544.00
2018-12-30T08:28:02.533Z,1744.00
2018-12-30T08:28:47.449Z,2084.00
2018-12-30T08:29:54.526Z,2300.00
2018-12-30T08:30:47.412Z,2496.00
2018-12-30T08:31:49.450Z,2696.00
2018-12-30T08:32:47.418Z,3004.00
2018-12-30T08:33:47.432Z,3524.00
2018-12-30T08:34:47.432Z,3964.00
2018-12-30T08:35:47.416Z,4384.00
2018-12-30T08:36:47.354Z,4876.00
2018-12-30T08:37:47.427Z,5444.00
2018-12-30T08:38:47.323Z,5876.00
2018-12-30T08:39:47.363Z,6132.00
2018-12-30T08:40:47.303Z,6348.00
2018-12-30T08:41:47.354Z,6936.00
2018-12-30T08:42:47.281Z,8316.00
2018-12-30T08:43:47.363Z,11556.00
2018-12-30T08:44:47.290Z,28288.00
2018-12-30T08:45:47.272Z,23264.00
2018-12-30T08:46:47.282Z,23552.00
2018-12-30T08:47:47.283Z,16416.00
2018-12-30T08:48:47.209Z,14688.00
2018-12-30T08:49:47.326Z,6896.00
2018-12-30T08:50:47.189Z,3388.00
2018-12-30T08:51:47.214Z,3052.00
2018-12-30T08:52:47.164Z,2920.00
2018-12-30T08:53:47.225Z,2696.00
2018-12-30T08:54:47.174Z,2632.00
2018-12-30T08:55:47.252Z,2616.00
2018-12-30T08:56:47.124Z,2596.00
2018-12-30T08:57:47.150Z,2580.00
2018-12-30T08:58:47.104Z,2520.00
2018-12-30T08:59:47.610Z,2428.00
2018-12-30T09:00:47.080Z,2324.00
2018-12-30T09:01:47.184Z,2216.00
2018-12-30T09:02:47.085Z,2140.00
2018-12-30T09:03:47.094Z,2136.00
2018-12-30T09:04:47.050Z,2164.00
2018-12-30T09:05:47.111Z,2160.00
2018-12-30T09:06:47.032Z,2180.00
2018-12-30T09:07:47.127Z,2196.00
2018-12-30T09:08:47.021Z,2240.00
2018-12-30T09:09:47.056Z,2296.00
2018-12-30T09:10:46.971Z,2328.00
2018-12-30T09:11:47.049Z,2392.00
2018-12-30T09:12:46.980Z,2452.00
2018-12-30T09:13:54.958Z,2504.00
2018-12-30T09:14:46.975Z,2560.00
2018-12-30T09:15:54.456Z,2592.00
2018-12-30T09:16:46.917Z,2632.00
2018-12-30T09:17:48.981Z,2672.00
2018-12-30T09:18:46.887Z,2724.00
2018-12-30T09:19:48.391Z,2852.00
2018-12-30T09:20:47.203Z,2984.00
2018-12-30T09:21:47.045Z,3044.00
2018-12-30T09:22:46.900Z,3068.00
2018-12-30T09:23:46.932Z,3108.00
2018-12-30T09:24:46.878Z,3076.00
2018-12-30T09:25:46.889Z,3056.00
2018-12-30T09:26:46.828Z,3196.00
2018-12-30T09:27:46.857Z,3400.00
2018-12-30T09:28:46.784Z,3544.00
2018-12-30T09:29:46.899Z,3584.00
2018-12-30T09:30:46.780Z,3572.00
2018-12-30T09:31:46.769Z,3532.00
2018-12-30T09:32:46.746Z,3540.00
2018-12-30T09:33:46.788Z,3532.00
2018-12-30T09:34:46.711Z,3524.00
2018-12-30T09:35:47.746Z,3552.00
2018-12-30T09:36:46.692Z,3480.00
2018-12-30T09:37:46.718Z,3416.00
2018-12-30T09:38:46.681Z,3440.00
2018-12-30T09:39:46.738Z,3444.00
2018-12-30T09:40:46.682Z,3460.00
2018-12-30T09:41:46.743Z,3600.00
2018-12-30T09:42:46.624Z,3748.00
2018-12-30T09:43:46.652Z,3732.00
2018-12-30T09:44:46.655Z,3740.00
2018-12-30T09:45:46.694Z,3900.00
2018-12-30T09:46:46.581Z,4220.00
2018-12-30T09:47:46.675Z,4500.00
2018-12-30T09:48:46.571Z,4700.00
2018-12-30T09:49:46.589Z,4908.00
2018-12-30T09:50:46.565Z,5104.00
2018-12-30T09:51:46.601Z,5276.00
2018-12-30T09:52:46.535Z,5444.00
2018-12-30T09:53:46.613Z,5756.00
2018-12-30T09:54:46.505Z,6124.00
2018-12-30T09:55:46.550Z,6436.00
2018-12-30T09:56:46.477Z,6604.00
2018-12-30T09:57:46.538Z,6900.00
2018-12-30T09:58:46.532Z,7516.00
2018-12-30T09:59:46.551Z,8272.00
2018-12-30T10:00:47.565Z,8876.00
2018-12-30T10:01:48.517Z,9152.00
2018-12-30T10:02:46.409Z,9260.00
2018-12-30T10:03:48.454Z,9604.00
2018-12-30T10:04:46.430Z,10668.00
2018-12-30T10:05:46.428Z,12588.00
2018-12-30T10:06:46.364Z,12540.00
2018-12-30T10:07:46.399Z,31488.00
2018-12-30T10:08:46.366Z,9148.00
2018-12-30T10:09:46.416Z,8268.00
2018-12-30T10:10:46.369Z,8496.00
2018-12-30T10:11:46.330Z,10472.00
2018-12-30T10:12:46.307Z,14204.00
2018-12-30T10:13:46.340Z,15328.00
2018-12-30T10:14:46.295Z,20000.00
2018-12-30T10:15:46.383Z,35456.00
2018-12-30T10:16:46.266Z,42752.00
2018-12-30T10:17:46.265Z,78848.00
2018-12-30T10:18:46.249Z,74464.00
2018-12-30T10:19:46.277Z,37856.00
2018-12-30T10:20:46.224Z,35872.00
2018-12-30T10:21:46.289Z,38944.00
2018-12-30T10:22:46.191Z,23584.00
2018-12-30T10:23:52.774Z,23456.00
2018-12-30T10:24:47.170Z,23648.00
2018-12-30T10:25:46.256Z,31360.00
2018-12-30T10:26:46.157Z,76544.00
2018-12-30T10:27:46.237Z,50592.00
2018-12-30T10:28:46.151Z,33824.00
2018-12-30T10:29:46.147Z,23136.00
2018-12-30T10:30:46.126Z,21952.00
2018-12-30T10:31:46.157Z,32288.00
2018-12-30T10:32:46.083Z,38208.00
2018-12-30T10:33:46.196Z,71968.00
2018-12-30T10:34:46.111Z,74656.00
2018-12-30T10:35:46.167Z,78016.00
2018-12-30T10:36:46.090Z,42688.00
2018-12-30T10:37:46.138Z,77760.00
2018-12-30T10:38:46.013Z,77600.00
2018-12-30T10:39:46.144Z,74656.00
2018-12-30T10:40:46.014Z,63808.00
2018-12-30T10:41:46.031Z,37344.00
2018-12-30T10:42:45.971Z,79424.00
2018-12-30T10:43:47.059Z,81504.00
2018-12-30T10:44:45.992Z,60256.00
2018-12-30T10:45:45.990Z,16384.00
2018-12-30T10:46:46.044Z,31136.00
2018-12-30T10:47:45.975Z,37632.00
2018-12-30T10:48:45.906Z,71040.00
2018-12-30T10:49:47.955Z,71680.00
2018-12-30T10:50:46.016Z,73504.00
2018-12-30T10:51:45.883Z,78112.00
2018-12-30T10:52:45.864Z,75712.00
2018-12-30T10:53:45.903Z,76192.00
2018-12-30T10:54:45.842Z,72448.00
2018-12-30T10:55:45.939Z,79328.00
2018-12-30T10:56:45.881Z,82592.00
2018-12-30T10:57:45.824Z,70336.00
2018-12-30T10:58:45.800Z,69696.00
2018-12-30T10:59:45.888Z,89760.00
2018-12-30T11:00:45.792Z,68032.00
2018-12-30T11:01:45.886Z,43744.00
2018-12-30T11:02:45.752Z,40320.00
2018-12-30T11:03:45.808Z,28704.00
2018-12-30T11:04:45.740Z,51904.00
2018-12-30T11:05:45.774Z,53344.00
2018-12-30T11:06:45.724Z,44192.00
2018-12-30T11:07:45.798Z,59456.00
2018-12-30T11:08:45.727Z,43552.00
2018-12-30T11:09:45.710Z,36960.00
2018-12-30T11:10:45.694Z,12924.00
2018-12-30T11:11:45.788Z,16672.00
2018-12-30T11:12:45.700Z,31776.00
2018-12-30T11:13:45.738Z,17152.00
2018-12-30T11:14:45.619Z,39712.00
2018-12-30T11:15:45.644Z,46240.00
2018-12-30T11:16:45.618Z,40768.00
2018-12-30T11:17:45.686Z,45536.00
2018-12-30T11:18:45.578Z,24448.00
2018-12-30T11:19:45.799Z,25696.00
2018-12-30T11:20:45.553Z,23072.00
2018-12-30T11:21:45.621Z,19104.00
2018-12-30T11:22:45.532Z,28480.00
2018-12-30T11:23:45.618Z,34624.00
2018-12-30T11:24:45.533Z,12992.00
2018-12-30T11:25:47.556Z,33792.00
2018-12-30T11:26:45.572Z,44000.00
2018-12-30T11:27:45.587Z,73184.00
2018-12-30T11:28:45.514Z,29184.00
2018-12-30T11:29:46.583Z,21568.00
2018-12-30T11:30:45.444Z,33056.00
2018-12-30T11:31:45.557Z,23232.00
2018-12-30T11:32:45.432Z,32832.00
2018-12-30T11:33:45.466Z,58400.00
2018-12-30T11:34:45.399Z,37216.00
2018-12-30T11:35:45.475Z,23296.00
2018-12-30T11:36:45.409Z,45120.00
2018-12-30T11:37:45.392Z,11688.00
2018-12-30T11:38:45.359Z,10648.00
2018-12-30T11:39:45.399Z,10284.00
2018-12-30T11:40:45.337Z,8960.00
2018-12-30T11:41:45.457Z,9528.00
2018-12-30T11:42:45.395Z,9984.00
2018-12-30T11:43:45.319Z,10028.00
2018-12-30T11:44:45.290Z,8448.00
2018-12-30T11:45:45.336Z,7976.00
2018-12-30T11:46:45.281Z,9620.00
2018-12-30T11:47:45.478Z,7568.00
2018-12-30T11:48:45.274Z,6968.00
2018-12-30T11:49:45.299Z,7928.00
2018-12-30T11:50:45.257Z,7364.00
2018-12-30T11:51:45.303Z,7616.00
2018-12-30T11:52:45.244Z,6296.00
2018-12-30T11:53:45.284Z,5740.00
2018-12-30T11:54:45.219Z,6328.00
2018-12-30T11:55:45.198Z,7160.00
2018-12-30T11:56:45.192Z,7504.00
2018-12-30T11:57:45.207Z,4992.00
2018-12-30T11:58:45.145Z,5064.00
2018-12-30T11:59:45.229Z,6312.00
2018-12-30T12:00:45.109Z,5372.00
2018-12-30T12:01:45.164Z,5288.00
2018-12-30T12:02:45.090Z,5120.00
2018-12-30T12:03:45.188Z,4244.00
2018-12-30T12:04:45.070Z,4036.00
2018-12-30T12:05:45.232Z,4852.00
2018-12-30T12:06:45.112Z,4956.00
2018-12-30T12:07:45.082Z,5256.00
2018-12-30T12:08:45.048Z,6808.00
2018-12-30T12:09:45.092Z,6008.00
2018-12-30T12:10:44.999Z,5268.00
2018-12-30T12:11:45.034Z,4276.00
2018-12-30T12:12:48.813Z,3280.00
2018-12-30T12:13:47.115Z,2824.00
2018-12-30T12:14:44.997Z,2788.00
2018-12-30T12:15:46.060Z,2796.00
2018-12-30T12:16:44.953Z,3100.00
2018-12-30T12:17:44.938Z,5072.00
2018-12-30T12:18:44.934Z,6560.00
2018-12-30T12:19:44.959Z,5196.00
2018-12-30T12:20:44.893Z,4744.00
2018-12-30T12:21:45.919Z,4444.00
2018-12-30T12:22:44.865Z,3872.00
2018-12-30T12:23:44.871Z,4312.00
2018-12-30T12:24:44.853Z,4176.00
2018-12-30T12:25:44.886Z,5216.00
2018-12-30T12:26:44.838Z,5412.00
2018-12-30T12:27:44.901Z,4768.00
2018-12-30T12:28:44.807Z,3820.00
2018-12-30T12:29:44.815Z,3228.00
2018-12-30T12:30:44.790Z,2648.00
2018-12-30T12:31:44.860Z,2620.00
2018-12-30T12:32:44.749Z,2884.00
2018-12-30T12:33:44.856Z,2704.00
2018-12-30T12:34:44.730Z,2600.00
2018-12-30T12:35:44.750Z,2716.00
2018-12-30T12:36:44.723Z,2788.00
2018-12-30T12:37:44.778Z,2740.00
2018-12-30T12:38:44.683Z,2676.00
2018-12-30T12:39:44.817Z,2616.00
2018-12-30T12:40:45.858Z,2696.00
2018-12-30T12:41:44.721Z,3020.00
2018-12-30T12:42:44.638Z,3300.00
2018-12-30T12:43:44.707Z,3156.00
2018-12-30T12:44:44.643Z,2816.00
2018-12-30T12:45:44.715Z,3004.00